Time;durP1;ratioP1;P1;durP2;ratioP2;P2;SDS_P1;SDS_P2;PMS_P1;PMS_P2;Temp;Humidity;BMP_temperature;BMP_pressure;BME280_temperature;BME280_humidity;BME280_pressure;Samples;Min_cycle;Max_cycle;Signal;HPM_P1;HPM_P2
2021/01/20 00:00:14;;;;;;;9.82;5.30;;;7.70;99.90;;;;;;5045858;28;20025;-70
2021/01/20 00:02:40;;;;;;;11.40;6.00;;;7.70;99.90;;;;;;5030609;28;20127;-71
2021/01/20 00:05:06;;;;;;;9.38;5.93;;;7.70;99.90;;;;;;5050887;28;20443;-71
2021/01/20 00:07:32;;;;;;;9.55;5.07;;;7.70;99.90;;;;;;5043200;28;20028;-71
2021/01/20 00:09:57;;;;;;;7.97;5.30;;;7.70;99.90;;;;;;5050075;28;20028;-71
2021/01/20 00:12:23;;;;;;;11.85;5.60;;;7.70;99.90;;;;;;5053591;28;20041;-71
2021/01/20 00:14:49;;;;;;;9.98;5.50;;;7.70;99.90;;;;;;5048009;28;20407;-71
2021/01/20 00:17:15;;;;;;;9.57;5.40;;;7.70;99.90;;;;;;5050157;28;20032;-71
2021/01/20 00:19:42;;;;;;;14.00;6.28;;;7.80;99.90;;;;;;5044564;28;20465;-71
2021/01/20 00:22:11;;;;;;;9.63;5.25;;;7.70;99.90;;;;;;5046146;28;20041;-71
2021/01/20 00:24:37;;;;;;;8.00;5.05;;;7.70;99.90;;;;;;5047751;28;20408;-70
2021/01/20 00:27:04;;;;;;;8.48;4.97;;;7.70;99.90;;;;;;5050106;28;20144;-70
2021/01/20 00:29:30;;;;;;;13.15;6.03;;;7.70;99.90;;;;;;5046060;28;20029;-70
2021/01/20 00:31:55;;;;;;;11.25;5.32;;;7.60;99.90;;;;;;5052331;28;20029;-71
2021/01/20 00:34:21;;;;;;;9.50;4.97;;;7.60;99.90;;;;;;5045548;28;20041;-70
2021/01/20 00:36:47;;;;;;;10.40;4.95;;;7.70;99.90;;;;;;5051123;28;20060;-70
2021/01/20 00:39:12;;;;;;;10.85;4.93;;;7.70;99.90;;;;;;5032354;28;20029;-71
2021/01/20 00:41:38;;;;;;;9.18;4.85;;;7.70;99.90;;;;;;5045953;28;20041;-71
2021/01/20 00:44:04;;;;;;;9.02;5.53;;;7.80;99.90;;;;;;5050401;28;20021;-71
2021/01/20 00:46:30;;;;;;;11.02;5.82;;;7.80;99.90;;;;;;5033226;28;20013;-71
2021/01/20 00:48:56;;;;;;;12.55;5.63;;;7.70;99.90;;;;;;5047421;28;20457;-70
2021/01/20 00:51:21;;;;;;;9.85;5.40;;;7.80;99.90;;;;;;5045265;28;20393;-71
2021/01/20 00:53:47;;;;;;;7.97;5.28;;;7.80;99.90;;;;;;5027492;28;20136;-71
2021/01/20 00:56:13;;;;;;;10.90;5.43;;;7.80;99.90;;;;;;5031751;28;20367;-71
2021/01/20 00:58:38;;;;;;;7.75;5.00;;;7.80;99.90;;;;;;5025439;28;20037;-71
2021/01/20 01:01:04;;;;;;;8.48;4.85;;;7.70;99.90;;;;;;5032130;28;20037;-71
2021/01/20 01:03:30;;;;;;;8.63;5.45;;;7.80;99.90;;;;;;5050929;28;20499;-70
2021/01/20 01:05:56;;;;;;;8.70;5.05;;;7.80;99.90;;;;;;5048969;28;20025;-71
2021/01/20 01:08:25;;;;;;;11.13;5.88;;;7.80;99.90;;;;;;5049341;28;20052;-71
2021/01/20 01:10:52;;;;;;;7.90;4.85;;;7.80;99.90;;;;;;5042783;28;20032;-71
2021/01/20 01:13:17;;;;;;;12.43;5.82;;;7.80;99.90;;;;;;5046809;28;20033;-71
2021/01/20 01:15:43;;;;;;;8.35;5.10;;;7.80;99.90;;;;;;5030921;28;20358;-71
2021/01/20 01:18:09;;;;;;;9.77;5.65;;;7.90;99.90;;;;;;5043108;28;20187;-70
2021/01/20 01:20:35;;;;;;;7.97;5.30;;;7.80;99.90;;;;;;5047339;28;20022;-70
2021/01/20 01:23:01;;;;;;;8.18;5.38;;;7.80;99.90;;;;;;5043424;28;20037;-71
2021/01/20 01:25:27;;;;;;;8.35;4.82;;;7.90;99.90;;;;;;5048222;28;20393;-71
2021/01/20 01:27:52;;;;;;;11.50;5.13;;;7.90;99.90;;;;;;5048578;28;20068;-70
2021/01/20 01:30:18;;;;;;;7.38;4.95;;;7.90;99.90;;;;;;5047895;28;20025;-72
2021/01/20 01:32:44;;;;;;;8.52;5.10;;;7.90;99.90;;;;;;5048190;28;20025;-71
2021/01/20 01:35:10;;;;;;;9.95;5.10;;;7.90;99.90;;;;;;5044256;28;20533;-71
2021/01/20 01:37:36;;;;;;;8.30;4.78;;;7.90;99.90;;;;;;5047165;28;20025;-70
2021/01/20 01:40:02;;;;;;;8.90;5.07;;;8.00;99.90;;;;;;5032627;28;20044;-71
2021/01/20 01:42:28;;;;;;;10.13;4.80;;;7.90;99.90;;;;;;5022488;28;20044;-71
2021/01/20 01:44:54;;;;;;;12.30;4.40;;;8.00;99.90;;;;;;5043242;28;20028;-71
2021/01/20 01:47:20;;;;;;;7.25;4.70;;;8.10;99.90;;;;;;5049920;28;20028;-71
2021/01/20 01:49:46;;;;;;;7.90;4.50;;;8.10;99.90;;;;;;5047180;28;20029;-71
2021/01/20 01:52:12;;;;;;;6.32;4.50;;;8.00;99.90;;;;;;5044282;28;20025;-71
2021/01/20 01:54:44;;;;;;;8.30;5.07;;;8.10;99.90;;;;;;5037240;28;22156;-71
2021/01/20 01:57:09;;;;;;;7.55;4.47;;;8.00;99.90;;;;;;5047330;28;20060;-71
2021/01/20 01:59:35;;;;;;;8.60;4.80;;;8.10;99.90;;;;;;5049114;28;20021;-71
2021/01/20 02:02:00;;;;;;;9.68;4.45;;;8.00;99.90;;;;;;5046097;28;20091;-71
2021/01/20 02:04:26;;;;;;;12.27;4.75;;;8.00;99.90;;;;;;5049796;28;20033;-71
2021/01/20 02:06:54;;;;;;;7.90;4.32;;;8.00;99.90;;;;;;5049664;28;20023;-71
2021/01/20 02:09:21;;;;;;;9.75;4.05;;;8.10;99.90;;;;;;5049951;28;20439;-71
2021/01/20 02:12:24;;;;;;;7.38;4.45;;;8.00;99.90;;;;;;5045351;28;20025;-71
2021/01/20 02:14:58;;;;;;;;;;;8.10;99.90;;;;;;5046914;28;20025;-71
2021/01/20 02:17:30;;;;;;;9.25;4.65;;;8.10;99.90;;;;;;5049498;28;20046;-71
2021/01/20 02:20:03;;;;;;;9.60;3.90;;;8.10;99.90;;;;;;5050804;28;20087;-71
2021/01/20 02:22:40;;;;;;;5.45;4.20;;;8.10;99.90;;;;;;5046758;28;20037;-71
2021/01/20 02:25:17;;;;;;;10.65;4.82;;;8.20;99.90;;;;;;5052271;28;20100;-72
2021/01/20 02:28:13;;;;;;;9.07;4.90;;;8.20;99.90;;;;;;5045906;28;20045;-71
2021/01/20 02:30:42;;;;;;;9.73;4.13;;;8.20;99.90;;;;;;5041195;28;20028;-71
2021/01/20 02:33:09;;;;;;;10.40;5.30;;;8.20;99.90;;;;;;5044436;28;20036;-72
2021/01/20 02:35:34;;;;;;;8.23;3.83;;;8.20;99.90;;;;;;5044474;28;20021;-71
2021/01/20 02:38:02;;;;;;;10.90;4.03;;;8.20;99.90;;;;;;5048031;28;20037;-71
2021/01/20 02:40:28;;;;;;;5.78;4.20;;;8.20;99.90;;;;;;5050232;28;20102;-71
2021/01/20 02:42:53;;;;;;;4.93;4.05;;;8.10;99.90;;;;;;5046126;28;20473;-72
2021/01/20 02:45:19;;;;;;;5.63;4.50;;;8.10;99.90;;;;;;5049242;28;20060;-71
2021/01/20 02:47:47;;;;;;;6.35;4.20;;;8.10;99.90;;;;;;5045160;28;20397;-71
2021/01/20 02:50:14;;;;;;;7.57;4.22;;;8.20;99.90;;;;;;5031420;28;20048;-71
2021/01/20 02:52:54;;;;;;;9.35;4.32;;;8.10;99.90;;;;;;5046390;28;20021;-71
2021/01/20 02:55:21;;;;;;;7.63;4.20;;;8.10;99.90;;;;;;5048833;28;20104;-71
2021/01/20 02:57:58;;;;;;;7.32;4.50;;;8.10;99.90;;;;;;5049647;28;20009;-70
2021/01/20 03:00:25;;;;;;;6.70;4.68;;;8.10;99.90;;;;;;5043152;28;20029;-71
2021/01/20 03:02:52;;;;;;;7.70;4.10;;;8.10;99.90;;;;;;5049264;28;20041;-71
2021/01/20 03:05:19;;;;;;;5.75;4.43;;;8.10;99.90;;;;;;5045690;28;20096;-71
2021/01/20 03:07:45;;;;;;;7.07;4.03;;;8.10;99.90;;;;;;5047013;28;20084;-71
2021/01/20 03:10:14;;;;;;;7.07;4.18;;;8.10;99.90;;;;;;5049734;28;20025;-71
2021/01/20 03:12:42;;;;;;;8.50;4.38;;;8.10;99.90;;;;;;5029325;28;20044;-71
2021/01/20 03:15:30;;;;;;;9.35;4.85;;;8.20;99.90;;;;;;5032876;28;20396;-71
2021/01/20 03:17:56;;;;;;;6.85;4.55;;;8.20;99.90;;;;;;5048177;28;20049;-71
2021/01/20 03:20:22;;;;;;;8.60;4.78;;;8.20;99.90;;;;;;5043818;28;20060;-71
2021/01/20 03:22:47;;;;;;;10.93;4.85;;;8.20;99.90;;;;;;5048718;28;20073;-71
2021/01/20 03:25:13;;;;;;;10.55;4.95;;;8.30;99.90;;;;;;5046182;28;20025;-71
2021/01/20 03:27:38;;;;;;;10.43;4.85;;;8.20;99.90;;;;;;5044413;28;20079;-71
2021/01/20 03:30:08;;;;;;;7.53;4.35;;;8.30;99.90;;;;;;5051774;28;20025;-71
2021/01/20 03:32:33;;;;;;;6.95;4.72;;;8.20;99.90;;;;;;5024052;28;20032;-70
2021/01/20 03:34:59;;;;;;;6.43;4.25;;;8.20;99.90;;;;;;5049082;28;20021;-71
2021/01/20 03:37:25;;;;;;;6.65;4.55;;;8.30;99.90;;;;;;5044515;28;20036;-71
2021/01/20 03:39:50;;;;;;;14.38;5.25;;;8.20;99.90;;;;;;5046960;28;20057;-71
2021/01/20 03:42:16;;;;;;;7.13;4.97;;;8.30;99.90;;;;;;5053062;28;20116;-71
2021/01/20 03:44:42;;;;;;;9.75;4.55;;;8.20;99.90;;;;;;5054772;28;20043;-71
2021/01/20 03:47:08;;;;;;;8.60;4.53;;;8.30;99.90;;;;;;5043701;28;20037;-71
2021/01/20 03:49:33;;;;;;;6.20;3.75;;;8.30;99.90;;;;;;5048847;28;20147;-71
2021/01/20 03:51:59;;;;;;;10.05;4.28;;;8.20;99.90;;;;;;5052294;28;20039;-71
2021/01/20 03:54:24;;;;;;;9.18;4.57;;;8.20;99.90;;;;;;5051007;28;20021;-71
2021/01/20 03:56:50;;;;;;;7.82;4.20;;;8.20;99.90;;;;;;5031046;28;20036;-71
2021/01/20 03:59:15;;;;;;;6.43;4.18;;;8.20;99.90;;;;;;5051758;28;20469;-71
2021/01/20 04:01:41;;;;;;;6.38;3.85;;;8.20;99.90;;;;;;5055177;28;20036;-71
2021/01/20 04:04:06;;;;;;;5.28;3.78;;;8.20;99.90;;;;;;5047666;28;20040;-71
2021/01/20 04:06:32;;;;;;;6.75;4.13;;;8.10;99.90;;;;;;5050734;28;20032;-71
2021/01/20 04:08:58;;;;;;;7.15;4.47;;;8.20;99.90;;;;;;5052298;28;20079;-71
2021/01/20 04:11:23;;;;;;;6.28;4.05;;;8.20;99.90;;;;;;5045706;28;20033;-71
2021/01/20 04:13:50;;;;;;;4.30;3.45;;;8.20;99.90;;;;;;5052731;28;20027;-71
2021/01/20 04:16:16;;;;;;;6.43;4.30;;;8.20;99.90;;;;;;5052535;28;20105;-71
2021/01/20 04:18:42;;;;;;;4.47;3.08;;;8.10;99.90;;;;;;5050031;28;20091;-71
2021/01/20 04:21:08;;;;;;;5.60;3.90;;;8.30;99.90;;;;;;5046051;28;20032;-71
2021/01/20 04:23:37;;;;;;;5.82;4.00;;;8.30;99.90;;;;;;5049660;28;20486;-71
2021/01/20 04:26:09;;;;;;;4.47;3.45;;;8.20;99.90;;;;;;5049954;28;20017;-71
2021/01/20 04:28:36;;;;;;;4.63;3.47;;;8.30;99.90;;;;;;5042649;28;20052;-71
2021/01/20 04:31:02;;;;;;;5.00;3.53;;;8.30;99.90;;;;;;5047429;28;20025;-71
2021/01/20 04:33:29;;;;;;;8.18;4.40;;;8.30;99.90;;;;;;5047702;28;20112;-71
2021/01/20 04:35:55;;;;;;;5.63;4.00;;;8.30;99.90;;;;;;5053072;28;20029;-71
2021/01/20 04:38:21;;;;;;;5.22;3.63;;;8.30;99.90;;;;;;5052449;28;20033;-71
2021/01/20 04:40:46;;;;;;;9.35;4.15;;;8.20;99.90;;;;;;5046515;28;20020;-71
2021/01/20 04:43:12;;;;;;;4.70;3.28;;;8.20;99.90;;;;;;5047636;28;20037;-71
2021/01/20 04:45:38;;;;;;;6.13;3.55;;;8.20;99.90;;;;;;5053667;28;20465;-71
2021/01/20 04:48:06;;;;;;;4.68;3.42;;;8.30;99.90;;;;;;5042010;28;20029;-71
2021/01/20 04:50:33;;;;;;;6.03;3.28;;;8.40;99.90;;;;;;5049367;28;20070;-71
2021/01/20 04:53:08;;;;;;;6.30;3.53;;;8.40;99.90;;;;;;5040908;28;20029;-71
2021/01/20 04:55:36;;;;;;;6.07;3.45;;;8.40;99.90;;;;;;5031920;28;20021;-71
2021/01/20 04:58:02;;;;;;;4.70;3.03;;;8.40;99.90;;;;;;5051163;28;20029;-71
2021/01/20 05:00:28;;;;;;;5.68;3.03;;;8.40;99.90;;;;;;5048519;28;20032;-71
2021/01/20 05:02:55;;;;;;;4.55;2.95;;;8.40;99.90;;;;;;5043280;28;20037;-71
2021/01/20 05:05:20;;;;;;;5.82;3.42;;;8.50;99.90;;;;;;5049254;28;20100;-71
2021/01/20 05:07:46;;;;;;;2.85;2.65;;;8.40;99.90;;;;;;5051644;28;20100;-71
2021/01/20 05:10:13;;;;;;;5.60;2.92;;;8.30;99.90;;;;;;5051858;28;20017;-71
2021/01/20 05:12:43;;;;;;;7.18;3.00;;;8.40;99.90;;;;;;5043274;28;20040;-71
2021/01/20 05:15:11;;;;;;;5.05;2.78;;;8.40;99.90;;;;;;5050954;28;20032;-71
2021/01/20 05:17:37;;;;;;;4.18;3.30;;;8.40;99.90;;;;;;5050709;28;20385;-71
2021/01/20 05:20:24;;;;;;;3.95;2.80;;;8.40;99.90;;;;;;5051903;28;20021;-71
2021/01/20 05:23:06;;;;;;;5.80;2.80;;;8.40;99.90;;;;;;5050741;28;20473;-71
2021/01/20 05:25:34;;;;;;;2.55;2.28;;;8.50;99.90;;;;;;5040757;28;20067;-71
2021/01/20 05:28:19;;;;;;;3.13;2.80;;;8.50;99.90;;;;;;5047788;28;20037;-71
2021/01/20 05:30:56;;;;;;;4.22;2.30;;;8.50;99.90;;;;;;5051936;28;20492;-71
2021/01/20 05:33:24;;;;;;;4.70;2.85;;;8.50;99.90;;;;;;5050065;28;20022;-71
2021/01/20 05:36:10;;;;;;;2.90;2.47;;;8.60;99.90;;;;;;5048278;28;20072;-71
2021/01/20 05:38:44;;;;;;;2.65;2.45;;;8.50;99.90;;;;;;5033488;28;20083;-71
2021/01/20 05:41:29;;;;;;;3.83;2.33;;;8.50;99.90;;;;;;5049466;28;20038;-71
2021/01/20 05:44:11;;;;;;;3.20;2.65;;;8.50;99.90;;;;;;5042027;28;20020;-71
2021/01/20 05:46:39;;;;;;;4.53;2.53;;;8.50;99.90;;;;;;5051420;28;20035;-71
2021/01/20 05:49:06;;;;;;;3.17;2.33;;;8.50;99.90;;;;;;5049266;28;20029;-71
2021/01/20 05:51:42;;;;;;;5.93;2.40;;;8.60;99.90;;;;;;5051813;28;20037;-71
2021/01/20 05:54:08;;;;;;;3.33;2.20;;;8.60;99.90;;;;;;5045054;28;20028;-71
2021/01/20 05:56:35;;;;;;;4.18;2.10;;;8.60;99.90;;;;;;5046727;28;20025;-71
2021/01/20 05:59:00;;;;;;;6.25;2.75;;;8.70;99.90;;;;;;5046534;28;20029;-71
2021/01/20 06:01:26;;;;;;;3.50;2.00;;;8.70;99.90;;;;;;5041949;28;20037;-71
2021/01/20 06:03:53;;;;;;;4.93;2.35;;;8.60;99.90;;;;;;5048439;28;20049;-71
2021/01/20 06:06:20;;;;;;;3.00;2.30;;;8.60;99.90;;;;;;5052123;28;20461;-71
2021/01/20 06:08:46;;;;;;;4.32;2.03;;;8.70;99.90;;;;;;5048428;28;20029;-71
2021/01/20 06:11:13;;;;;;;3.25;1.92;;;8.70;99.90;;;;;;5053662;28;20036;-71
2021/01/20 06:13:39;;;;;;;2.75;2.13;;;8.70;99.90;;;;;;5038683;28;20099;-71
2021/01/20 06:16:19;;;;;;;3.17;1.77;;;8.70;99.90;;;;;;5045746;28;20112;-71
2021/01/20 06:18:50;;;;;;;3.28;2.17;;;8.70;99.90;;;;;;5045664;28;20099;-71
2021/01/20 06:21:17;;;;;;;2.65;1.95;;;8.70;99.90;;;;;;5050820;28;20037;-71
2021/01/20 06:23:57;;;;;;;3.33;2.22;;;8.70;99.90;;;;;;5043267;28;20033;-71
2021/01/20 06:26:25;;;;;;;5.93;2.53;;;8.70;99.90;;;;;;5038651;28;20029;-72
2021/01/20 06:29:08;;;;;;;3.50;2.25;;;8.70;99.90;;;;;;5045283;28;20108;-71
2021/01/20 06:31:40;;;;;;;4.18;2.40;;;8.70;99.90;;;;;;5047404;28;20013;-71
2021/01/20 06:34:06;;;;;;;5.30;2.67;;;8.60;99.90;;;;;;5033051;28;20022;-71
2021/01/20 06:36:37;;;;;;;3.90;2.42;;;8.60;99.90;;;;;;5044759;28;20530;-71
2021/01/20 06:39:32;;;;;;;8.90;2.60;;;8.60;99.90;;;;;;5051665;28;20032;-71
2021/01/20 06:41:59;;;;;;;6.13;3.17;;;8.60;99.90;;;;;;5037188;28;20389;-71
2021/01/20 06:44:24;;;;;;;16.60;3.33;;;8.50;99.90;;;;;;5042269;28;20022;-71
2021/01/20 06:46:56;;;;;;;6.78;3.00;;;8.40;99.90;;;;;;5048473;28;20051;-71
2021/01/20 06:49:26;;;;;;;8.18;2.95;;;8.50;99.90;;;;;;5047051;28;20079;-71
2021/01/20 06:52:11;;;;;;;6.18;2.72;;;8.50;99.90;;;;;;5048297;28;20021;-71
2021/01/20 06:54:45;;;;;;;9.35;3.05;;;8.50;99.90;;;;;;5047802;28;20017;-71
2021/01/20 06:57:22;;;;;;;3.65;2.10;;;8.50;99.90;;;;;;5045082;28;20017;-71
2021/01/20 07:00:08;;;;;;;3.22;2.25;;;8.50;99.90;;;;;;5049453;28;20033;-71
2021/01/20 07:02:56;;;;;;;3.42;2.05;;;8.50;99.90;;;;;;5031003;28;20037;-71
2021/01/20 07:05:38;;;;;;;4.70;2.03;;;8.50;99.90;;;;;;5039593;28;20070;-71
2021/01/20 07:08:06;;;;;;;4.25;2.35;;;8.40;99.90;;;;;;5044375;28;20057;-71
2021/01/20 07:10:57;;;;;;;5.18;2.22;;;8.40;99.90;;;;;;5048679;28;20089;-71
2021/01/20 07:13:33;;;;;;;3.72;2.30;;;8.40;99.90;;;;;;5047402;28;20107;-71
2021/01/20 07:15:59;;;;;;;4.45;2.97;;;8.40;99.90;;;;;;5045737;28;20036;-71
2021/01/20 07:18:26;;;;;;;3.13;2.47;;;8.40;99.90;;;;;;5044961;28;20602;-71
2021/01/20 07:20:53;;;;;;;2.80;2.50;;;8.40;99.90;;;;;;5044625;28;20049;-71
2021/01/20 07:23:19;;;;;;;3.53;2.55;;;8.40;99.90;;;;;;5045491;28;20064;-71
2021/01/20 07:25:47;;;;;;;5.25;3.00;;;8.40;99.90;;;;;;5047263;28;20013;-71
2021/01/20 07:28:12;;;;;;;2.33;2.13;;;8.40;99.90;;;;;;5048042;28;20025;-71
2021/01/20 07:30:38;;;;;;;4.05;1.83;;;8.50;99.90;;;;;;5049784;28;20030;-72
2021/01/20 07:33:14;;;;;;;2.75;2.55;;;8.40;99.90;;;;;;5046940;28;20035;-71
2021/01/20 07:35:39;;;;;;;3.22;2.92;;;8.40;99.90;;;;;;5045335;28;20056;-71
2021/01/20 07:38:06;;;;;;;4.50;2.42;;;8.50;99.90;;;;;;5029996;28;20461;-71
2021/01/20 07:40:38;;;;;;;3.03;2.08;;;8.50;99.90;;;;;;5025241;28;20025;-71
2021/01/20 07:43:04;;;;;;;3.33;2.03;;;8.50;99.90;;;;;;5049692;28;20072;-71
2021/01/20 07:45:38;;;;;;;3.65;2.03;;;8.50;99.90;;;;;;5048615;28;20030;-71
2021/01/20 07:48:06;;;;;;;2.88;2.03;;;8.50;99.90;;;;;;5037975;28;20029;-71
2021/01/20 07:50:36;;;;;;;3.67;2.30;;;8.60;99.90;;;;;;5030940;28;20032;-70
2021/01/20 07:53:04;;;;;;;4.90;2.50;;;8.60;99.90;;;;;;5023904;28;20032;-71
2021/01/20 07:55:30;;;;;;;4.88;2.60;;;8.60;99.90;;;;;;5042182;28;20051;-71
2021/01/20 07:57:57;;;;;;;7.72;2.70;;;8.60;99.90;;;;;;5044641;28;20037;-71
2021/01/20 08:00:22;;;;;;;3.65;1.92;;;8.60;99.90;;;;;;5047165;28;20026;-71
2021/01/20 08:02:48;;;;;;;3.70;2.08;;;8.60;99.90;;;;;;5044782;28;20527;-71
2021/01/20 08:05:14;;;;;;;3.83;2.30;;;8.60;99.90;;;;;;5041048;28;20113;-71
2021/01/20 08:07:40;;;;;;;5.30;2.45;;;8.50;99.90;;;;;;5046961;28;20104;-70
2021/01/20 08:10:22;;;;;;;3.97;2.05;;;8.60;99.90;;;;;;5039777;28;20436;-71
2021/01/20 08:12:51;;;;;;;3.13;2.20;;;8.60;99.90;;;;;;5045522;28;20103;-71
2021/01/20 08:15:18;;;;;;;2.53;1.98;;;8.60;99.90;;;;;;5044766;28;20398;-71
2021/01/20 08:17:44;;;;;;;3.78;1.90;;;8.70;99.90;;;;;;5047236;28;20025;-71
2021/01/20 08:20:11;;;;;;;4.28;2.13;;;8.70;99.90;;;;;;5047872;28;20029;-71
2021/01/20 08:22:47;;;;;;;2.20;1.90;;;8.70;99.90;;;;;;5043968;28;20068;-71
2021/01/20 08:25:18;;;;;;;2.50;1.75;;;8.70;99.90;;;;;;5050449;28;20450;-71
2021/01/20 08:27:45;;;;;;;2.10;1.80;;;8.70;99.90;;;;;;5051382;28;20021;-71
2021/01/20 08:30:12;;;;;;;2.88;1.98;;;8.80;99.90;;;;;;5047446;28;20027;-71
2021/01/20 08:32:55;;;;;;;2.78;2.03;;;8.70;99.90;;;;;;5047987;28;20025;-71
2021/01/20 08:35:31;;;;;;;;;;;8.80;99.90;;;;;;5050361;28;20492;-71
2021/01/20 08:37:57;;;;;;;3.85;1.80;;;8.90;99.90;;;;;;5050781;28;19904;-70
2021/01/20 08:40:23;;;;;;;2.33;1.42;;;8.90;99.90;;;;;;5051423;28;20028;-71
2021/01/20 08:42:49;;;;;;;2.63;1.88;;;8.90;99.90;;;;;;5047479;28;20091;-71
2021/01/20 08:45:31;;;;;;;2.45;1.70;;;8.90;99.90;;;;;;5043056;28;20021;-71
2021/01/20 08:48:09;;;;;;;2.65;1.92;;;9.00;99.90;;;;;;5050780;28;20166;-71
2021/01/20 08:50:43;;;;;;;2.10;1.67;;;9.00;99.90;;;;;;5048668;28;20029;-71
2021/01/20 08:53:23;;;;;;;4.00;1.80;;;9.00;99.90;;;;;;5049134;28;20055;-71
2021/01/20 08:55:52;;;;;;;5.50;3.40;;;9.10;99.90;;;;;;5047287;28;20087;-71
2021/01/20 08:58:24;;;;;;;2.72;2.08;;;9.10;99.90;;;;;;5047715;28;20112;-71
2021/01/20 09:00:58;;;;;;;4.00;1.73;;;9.10;99.90;;;;;;5050372;28;20079;-71
2021/01/20 09:03:24;;;;;;;2.35;1.73;;;9.10;99.90;;;;;;5046759;28;20068;-71
2021/01/20 09:05:52;;;;;;;3.78;2.03;;;9.20;99.90;;;;;;5026528;28;20022;-71
2021/01/20 09:08:19;;;;;;;3.03;1.60;;;9.30;99.90;;;;;;5049944;28;20037;-71
2021/01/20 09:10:46;;;;;;;2.22;1.50;;;9.30;99.90;;;;;;5047438;28;20032;-71
2021/01/20 09:13:12;;;;;;;1.80;1.60;;;9.30;99.90;;;;;;5049032;28;20037;-71
2021/01/20 09:15:38;;;;;;;3.55;2.22;;;9.30;99.90;;;;;;5050690;28;20021;-71
2021/01/20 09:18:08;;;;;;;2.22;1.83;;;9.30;99.90;;;;;;5034758;28;20039;-71
2021/01/20 09:20:34;;;;;;;4.18;2.60;;;9.40;99.90;;;;;;5047709;28;20055;-71
2021/01/20 09:23:01;;;;;;;4.63;2.55;;;9.40;99.90;;;;;;5051238;28;20119;-71
2021/01/20 09:25:26;;;;;;;2.00;1.80;;;9.40;99.90;;;;;;5050385;28;20017;-71
2021/01/20 09:27:52;;;;;;;2.35;1.88;;;9.40;99.90;;;;;;5050565;28;20107;-71
2021/01/20 09:30:18;;;;;;;2.55;1.77;;;9.30;99.90;;;;;;5049352;28;20045;-71
2021/01/20 09:32:43;;;;;;;2.97;1.88;;;9.40;99.90;;;;;;5052571;28;20389;-71
2021/01/20 09:35:14;;;;;;;2.28;1.70;;;9.40;99.90;;;;;;5044494;28;20026;-71
2021/01/20 09:37:41;;;;;;;3.03;1.60;;;9.40;99.90;;;;;;5048418;28;20025;-71
2021/01/20 09:40:10;;;;;;;3.33;1.92;;;9.40;99.90;;;;;;5046386;28;20022;-71
2021/01/20 09:42:36;;;;;;;2.28;1.83;;;9.50;99.90;;;;;;5039871;28;20071;-71
2021/01/20 09:45:04;;;;;;;2.42;1.92;;;9.50;99.90;;;;;;5021472;28;20072;-71
2021/01/20 09:47:30;;;;;;;2.03;1.83;;;9.60;99.90;;;;;;5048362;28;20028;-71
2021/01/20 09:49:55;;;;;;;3.05;2.00;;;9.60;99.90;;;;;;5047726;28;20027;-71
2021/01/20 09:52:25;;;;;;;4.10;1.67;;;9.60;99.90;;;;;;5044902;28;20067;-71
2021/01/20 09:54:52;;;;;;;2.53;1.90;;;9.50;99.90;;;;;;5043544;28;20029;-71
2021/01/20 09:57:18;;;;;;;2.55;1.63;;;9.70;99.90;;;;;;5042949;28;20100;-71
2021/01/20 09:59:43;;;;;;;2.25;1.63;;;9.70;99.90;;;;;;5046040;28;20103;-71
2021/01/20 10:02:09;;;;;;;1.70;1.45;;;9.70;99.90;;;;;;5048301;28;20044;-70
2021/01/20 10:04:34;;;;;;;1.83;1.70;;;9.70;99.90;;;;;;5046273;28;20099;-70
2021/01/20 10:07:00;;;;;;;2.47;1.67;;;9.70;99.90;;;;;;5048153;28;20056;-71
2021/01/20 10:09:25;;;;;;;3.10;2.00;;;9.70;99.90;;;;;;5045063;28;20033;-71
2021/01/20 10:11:51;;;;;;;2.83;1.65;;;9.70;99.90;;;;;;5049087;28;20083;-71
2021/01/20 10:14:17;;;;;;;3.00;1.90;;;9.80;99.90;;;;;;5047231;28;20066;-71
2021/01/20 10:16:46;;;;;;;3.78;1.92;;;9.90;99.90;;;;;;5038183;28;20030;-71
2021/01/20 10:19:13;;;;;;;3.45;1.85;;;9.90;99.90;;;;;;5032683;28;20366;-71
2021/01/20 10:21:38;;;;;;;5.18;2.75;;;9.90;99.90;;;;;;5046823;28;20112;-71
2021/01/20 10:24:05;;;;;;;2.70;1.80;;;9.90;99.90;;;;;;5027573;28;20438;-71
2021/01/20 10:26:30;;;;;;;2.38;1.80;;;9.90;99.90;;;;;;5049632;28;20021;-71
2021/01/20 10:28:56;;;;;;;4.65;2.63;;;9.90;99.90;;;;;;5039830;28;20128;-71
2021/01/20 10:31:21;;;;;;;2.25;1.65;;;9.90;99.90;;;;;;5047944;28;20104;-71
2021/01/20 10:33:47;;;;;;;2.15;1.88;;;9.90;99.90;;;;;;5047894;28;20025;-71
2021/01/20 10:36:12;;;;;;;1.77;1.52;;;9.90;99.90;;;;;;5048240;28;20040;-70
2021/01/20 10:38:38;;;;;;;4.40;1.85;;;9.90;99.90;;;;;;5042430;28;20036;-71
2021/01/20 10:41:03;;;;;;;4.45;1.50;;;9.90;99.90;;;;;;5047924;28;20389;-71
2021/01/20 10:43:29;;;;;;;1.80;1.52;;;9.90;99.90;;;;;;5039598;28;20535;-71
2021/01/20 10:45:58;;;;;;;2.53;1.65;;;10.00;99.90;;;;;;5040572;28;20025;-70
2021/01/20 10:48:24;;;;;;;1.92;1.73;;;9.90;99.90;;;;;;5028986;28;20024;-70
2021/01/20 10:50:50;;;;;;;1.60;1.50;;;10.00;99.90;;;;;;5043870;28;20022;-70
2021/01/20 10:53:16;;;;;;;3.95;2.35;;;10.00;99.90;;;;;;5047053;28;20032;-71
2021/01/20 10:55:41;;;;;;;2.00;1.75;;;10.00;99.90;;;;;;5043029;28;20056;-71
2021/01/20 10:58:07;;;;;;;5.00;2.00;;;10.00;99.90;;;;;;5048809;28;20037;-71
2021/01/20 11:00:32;;;;;;;2.78;1.95;;;9.80;99.90;;;;;;5044201;28;20037;-71
2021/01/20 11:02:58;;;;;;;4.00;1.85;;;9.90;99.90;;;;;;5046356;28;20076;-71
2021/01/20 11:05:24;;;;;;;2.95;1.98;;;9.90;99.90;;;;;;5043415;28;20017;-71
2021/01/20 11:07:49;;;;;;;2.50;1.85;;;10.00;99.90;;;;;;5049373;28;20036;-71
2021/01/20 11:10:15;;;;;;;6.80;2.55;;;10.00;99.90;;;;;;5038701;28;20021;-71
2021/01/20 11:12:41;;;;;;;3.35;2.00;;;10.00;99.90;;;;;;5048292;28;20032;-72
2021/01/20 11:15:07;;;;;;;5.38;2.70;;;10.20;99.90;;;;;;5050188;28;20025;-71
2021/01/20 11:17:32;;;;;;;4.50;2.20;;;10.10;99.90;;;;;;5050540;28;20021;-70
2021/01/20 11:19:58;;;;;;;3.55;2.25;;;10.20;99.90;;;;;;5050663;28;20444;-71
2021/01/20 11:22:24;;;;;;;6.07;2.00;;;10.20;99.90;;;;;;5048871;28;20038;-71
2021/01/20 11:24:59;;;;;;;3.67;1.60;;;10.30;99.90;;;;;;5043425;28;20013;-71
2021/01/20 11:27:24;;;;;;;3.35;2.05;;;10.40;99.90;;;;;;5049843;28;20512;-71
2021/01/20 11:29:50;;;;;;;3.63;1.90;;;10.40;99.90;;;;;;5050220;28;20105;-71
2021/01/20 11:32:16;;;;;;;6.30;1.83;;;10.40;99.90;;;;;;5048832;28;20029;-71
2021/01/20 11:34:41;;;;;;;4.43;1.85;;;10.50;99.90;;;;;;5050663;28;20059;-71
2021/01/20 11:37:07;;;;;;;2.20;2.00;;;10.50;99.90;;;;;;5049130;28;20021;-71
2021/01/20 11:39:36;;;;;;;4.47;1.80;;;10.50;99.90;;;;;;5047121;28;20021;-71
2021/01/20 11:42:02;;;;;;;4.65;2.53;;;10.60;99.90;;;;;;5048548;28;20048;-71
2021/01/20 11:44:27;;;;;;;5.70;2.03;;;10.70;99.90;;;;;;5041948;28;20021;-71
2021/01/20 11:46:53;;;;;;;2.65;1.73;;;10.70;99.90;;;;;;5041712;28;20108;-71
2021/01/20 11:49:18;;;;;;;3.03;2.33;;;10.60;99.90;;;;;;5043110;28;20488;-71
2021/01/20 11:51:45;;;;;;;4.05;2.22;;;10.70;99.90;;;;;;5051060;28;20096;-70
2021/01/20 11:54:11;;;;;;;3.53;2.10;;;10.70;99.90;;;;;;5046534;28;20044;-71
2021/01/20 11:56:36;;;;;;;6.28;1.63;;;10.70;99.90;;;;;;5045916;28;20021;-71
2021/01/20 11:59:02;;;;;;;3.00;2.00;;;10.80;99.90;;;;;;5037238;28;20040;-71
2021/01/20 12:01:32;;;;;;;4.63;2.30;;;10.80;99.90;;;;;;5045108;28;20071;-72
2021/01/20 12:03:58;;;;;;;4.05;1.90;;;10.80;99.90;;;;;;5027814;28;20033;-71
2021/01/20 12:06:24;;;;;;;1.70;1.60;;;10.90;99.90;;;;;;5038363;28;20482;-71
2021/01/20 12:08:49;;;;;;;5.43;2.28;;;10.90;99.90;;;;;;5040789;28;20446;-71
2021/01/20 12:11:15;;;;;;;3.15;1.60;;;10.90;99.90;;;;;;5046377;28;20052;-71
2021/01/20 12:13:41;;;;;;;6.97;2.20;;;10.80;99.90;;;;;;5035680;28;20539;-71
2021/01/20 12:16:06;;;;;;;2.90;2.25;;;10.80;99.90;;;;;;5051298;28;20033;-71
2021/01/20 12:18:32;;;;;;;4.22;1.83;;;10.80;99.90;;;;;;5041462;28;20057;-71
2021/01/20 12:20:59;;;;;;;2.58;1.70;;;10.90;99.90;;;;;;5040265;28;20025;-73
2021/01/20 12:23:25;;;;;;;4.00;2.30;;;10.90;99.90;;;;;;5047044;28;20021;-71
2021/01/20 12:25:52;;;;;;;3.45;1.58;;;11.00;99.90;;;;;;5002115;28;20041;-71
2021/01/20 12:28:17;;;;;;;4.25;1.85;;;11.00;99.90;;;;;;5040771;28;20029;-71
2021/01/20 12:30:43;;;;;;;4.25;2.05;;;11.00;99.90;;;;;;5042419;28;20028;-71
2021/01/20 12:33:09;;;;;;;3.88;2.20;;;11.00;99.90;;;;;;5051308;28;20037;-71
2021/01/20 12:35:34;;;;;;;2.88;1.90;;;11.00;99.90;;;;;;5053603;28;20025;-71
2021/01/20 12:38:00;;;;;;;4.18;2.00;;;11.00;99.90;;;;;;5037480;28;20080;-71
2021/01/20 12:40:26;;;;;;;4.95;2.30;;;11.00;99.90;;;;;;5040927;28;20083;-71
2021/01/20 12:42:52;;;;;;;4.78;2.50;;;11.10;99.90;;;;;;5046107;28;20037;-71
2021/01/20 12:45:18;;;;;;;4.97;2.20;;;11.10;99.90;;;;;;5039316;28;20028;-71
2021/01/20 12:47:43;;;;;;;4.15;2.28;;;11.20;99.90;;;;;;5022319;28;20017;-71
2021/01/20 12:50:09;;;;;;;3.63;1.90;;;11.20;99.90;;;;;;5043261;28;20481;-71
2021/01/20 12:52:35;;;;;;;4.07;2.08;;;11.30;99.90;;;;;;5045972;28;20465;-71
2021/01/20 12:55:01;;;;;;;5.70;1.92;;;11.30;99.90;;;;;;5051604;28;20043;-71
2021/01/20 12:57:26;;;;;;;4.82;2.03;;;11.30;99.90;;;;;;5041985;28;20109;-71
2021/01/20 12:59:52;;;;;;;4.05;1.70;;;11.30;99.90;;;;;;5042625;28;20067;-71